RJST(METAR)
06/25 09:00
METAR RJST 250000Z 16008KT 9999 FEW007 SCT010 BKN015 20/18 Q1017 RMK
2ST007 3ST010 5CU015 A3004=
戻る
トップページへ戻る
IMOC Co,.Ltd.